createdAt,value
2017-04-08T00:00:20.088Z,25.63
2017-04-08T00:01:19.089Z,26.70
2017-04-08T00:02:17.389Z,28.95
2017-04-08T00:03:15.629Z,30.48
2017-04-08T00:04:13.928Z,23.97
2017-04-08T00:05:12.201Z,25.35
2017-04-08T00:06:10.620Z,29.83
2017-04-08T00:07:08.949Z,26.22
2017-04-08T00:08:07.263Z,26.05
2017-04-08T00:09:05.764Z,26.48
2017-04-08T00:10:04.107Z,25.52
2017-04-08T00:11:02.536Z,26.07
2017-04-08T00:12:01.620Z,25.28
2017-04-08T00:13:00.657Z,25.67
2017-04-08T00:13:58.968Z,30.92
2017-04-08T00:14:57.265Z,27.82
2017-04-08T00:15:55.648Z,27.28
2017-04-08T00:16:54.792Z,28.65
2017-04-08T00:17:53.856Z,28.93
2017-04-08T00:18:52.158Z,30.65
2017-04-08T00:19:51.334Z,27.12
2017-04-08T00:20:50.537Z,29.75
2017-04-08T00:21:48.916Z,25.20
2017-04-08T00:22:47.249Z,26.87
2017-04-08T00:23:45.589Z,26.27
2017-04-08T00:24:43.963Z,27.57
2017-04-08T00:25:42.296Z,28.02
2017-04-08T00:26:40.689Z,29.83
2017-04-08T00:27:39.749Z,31.22
2017-04-08T00:28:38.076Z,27.07
2017-04-08T00:29:37.196Z,27.68
2017-04-08T00:30:35.568Z,25.97
2017-04-08T00:31:33.881Z,28.58
2017-04-08T00:32:32.289Z,27.57
2017-04-08T00:33:31.398Z,31.48
2017-04-08T00:34:29.696Z,28.83
2017-04-08T00:35:27.973Z,35.73
2017-04-08T00:36:26.252Z,28.83
2017-04-08T00:37:25.388Z,29.32
2017-04-08T00:38:24.445Z,26.38
2017-04-08T00:39:23.450Z,27.50
2017-04-08T00:40:21.765Z,26.87
2017-04-08T00:41:20.129Z,27.00
2017-04-08T00:42:18.461Z,26.38
2017-04-08T00:43:16.830Z,40.90
2017-04-08T00:44:15.120Z,26.02
2017-04-08T00:45:13.495Z,26.35
2017-04-08T00:46:11.893Z,27.33
2017-04-08T00:47:10.905Z,26.45
2017-04-08T00:48:09.297Z,27.85
2017-04-08T00:49:07.606Z,25.35
2017-04-08T00:50:05.929Z,27.98
2017-04-08T00:51:04.967Z,25.55
2017-04-08T00:52:04.029Z,27.93
2017-04-08T00:53:02.317Z,29.32
2017-04-08T00:54:01.442Z,28.20
2017-04-08T00:54:59.784Z,27.15
2017-04-08T00:55:58.800Z,31.28
2017-04-08T00:56:57.145Z,33.47
2017-04-08T00:57:55.564Z,29.28
2017-04-08T00:58:53.815Z,32.35
2017-04-08T00:59:52.105Z,30.05
2017-04-08T01:00:56.269Z,29.32
2017-04-08T01:01:59.141Z,29.92
2017-04-08T01:02:57.445Z,29.28
2017-04-08T01:03:55.733Z,35.78
2017-04-08T01:04:54.762Z,33.62
2017-04-08T01:05:53.024Z,30.08
2017-04-08T01:06:51.393Z,30.28
2017-04-08T01:07:49.688Z,32.40
2017-04-08T01:08:48.032Z,31.25
2017-04-08T01:09:46.407Z,31.92
2017-04-08T01:10:44.687Z,32.45
2017-04-08T01:11:43.010Z,32.08
2017-04-08T01:12:42.036Z,30.83
2017-04-08T01:13:40.372Z,31.00
2017-04-08T01:14:38.721Z,36.70
2017-04-08T01:15:37.729Z,31.25
2017-04-08T01:16:36.073Z,33.42
2017-04-08T01:17:34.484Z,35.47
2017-04-08T01:18:32.849Z,33.70
2017-04-08T01:19:31.272Z,32.80
2017-04-08T01:20:29.584Z,36.67
2017-04-08T01:21:28.624Z,34.13
2017-04-08T01:22:27.661Z,38.77
2017-04-08T01:23:25.988Z,34.38
2017-04-08T01:24:24.296Z,35.12
2017-04-08T01:25:22.576Z,33.63
2017-04-08T01:26:20.975Z,34.95
2017-04-08T01:27:19.276Z,35.37
2017-04-08T01:28:17.628Z,34.32
2017-04-08T01:29:16.724Z,34.83
2017-04-08T01:30:15.020Z,36.93
2017-04-08T01:31:13.272Z,36.25
2017-04-08T01:32:11.681Z,36.77
2017-04-08T01:33:09.992Z,33.05
2017-04-08T01:34:08.322Z,33.68
2017-04-08T01:35:06.649Z,34.87
2017-04-08T01:36:04.948Z,36.32
2017-04-08T01:37:03.265Z,35.68
2017-04-08T01:38:01.623Z,35.83
2017-04-08T01:39:00.008Z,35.52
2017-04-08T01:39:58.529Z,35.97
2017-04-08T01:40:56.120Z,38.57
2017-04-08T01:41:54.494Z,37.13
2017-04-08T01:42:58.744Z,38.52
2017-04-08T01:43:57.094Z,37.12
2017-04-08T01:44:55.477Z,38.43
2017-04-08T01:45:54.660Z,38.27
2017-04-08T01:46:53.076Z,36.32
2017-04-08T01:47:51.441Z,35.13
2017-04-08T01:48:51.087Z,38.15
2017-04-08T01:49:49.436Z,37.83
2017-04-08T01:50:47.861Z,36.15
2017-04-08T01:51:46.216Z,37.17
2017-04-08T01:52:44.524Z,36.20
2017-04-08T01:53:42.901Z,37.98
2017-04-08T01:54:41.232Z,39.48
2017-04-08T01:55:40.460Z,38.68
2017-04-08T01:56:38.797Z,39.25
2017-04-08T01:57:37.881Z,42.57
2017-04-08T01:58:36.213Z,39.58
2017-04-08T01:59:34.571Z,38.58
2017-04-08T02:00:32.904Z,38.17
2017-04-08T02:01:31.273Z,36.67
2017-04-08T02:02:30.696Z,40.63
2017-04-08T02:03:29.022Z,38.28
2017-04-08T02:04:27.352Z,41.73
2017-04-08T02:05:25.706Z,37.68
2017-04-08T02:06:24.149Z,40.23
2017-04-08T02:07:22.508Z,39.47
2017-04-08T02:08:20.863Z,41.05
2017-04-08T02:09:19.273Z,40.13
2017-04-08T02:10:17.667Z,41.75
2017-04-08T02:11:16.057Z,42.07
2017-04-08T02:12:15.233Z,40.75
2017-04-08T02:13:13.556Z,43.20
2017-04-08T02:14:11.951Z,39.10
2017-04-08T02:15:10.378Z,43.17
2017-04-08T02:16:08.710Z,41.62
2017-04-08T02:17:07.057Z,41.97
2017-04-08T02:18:05.417Z,41.32
2017-04-08T02:19:03.812Z,48.33
2017-04-08T02:20:02.183Z,44.42
2017-04-08T02:21:00.510Z,41.45
2017-04-08T02:21:58.911Z,42.42
2017-04-08T02:22:57.331Z,43.33
2017-04-08T02:23:55.771Z,44.43
2017-04-08T02:24:54.153Z,42.45
2017-04-08T02:25:53.217Z,44.18
2017-04-08T02:26:51.699Z,43.25
2017-04-08T02:27:50.225Z,41.95
2017-04-08T02:28:48.652Z,44.00
2017-04-08T02:29:47.801Z,40.57
2017-04-08T02:30:46.209Z,41.90
2017-04-08T02:31:45.355Z,44.58
2017-04-08T02:32:43.741Z,44.28
2017-04-08T02:33:42.114Z,45.02
2017-04-08T02:34:40.444Z,44.20
2017-04-08T02:35:38.833Z,44.57
2017-04-08T02:36:37.184Z,43.77
2017-04-08T02:37:35.537Z,45.72
2017-04-08T02:38:33.893Z,43.97
2017-04-08T02:39:32.256Z,48.08
2017-04-08T02:40:30.629Z,45.80
2017-04-08T02:41:28.980Z,42.33
2017-04-08T02:42:28.159Z,44.55
2017-04-08T02:43:27.312Z,42.25
2017-04-08T02:44:25.640Z,44.98
2017-04-08T02:45:23.969Z,45.73
2017-04-08T02:46:22.288Z,42.77
2017-04-08T02:47:21.399Z,48.07
2017-04-08T02:48:19.764Z,44.85
2017-04-08T02:49:18.060Z,45.73
2017-04-08T02:50:16.368Z,46.65
2017-04-08T02:51:14.732Z,45.28
2017-04-08T02:52:13.060Z,42.50
2017-04-08T02:53:11.359Z,55.83
2017-04-08T02:54:10.453Z,44.60
2017-04-08T02:55:08.766Z,45.73
2017-04-08T02:56:07.129Z,43.25
2017-04-08T02:57:05.425Z,42.68
2017-04-08T02:58:04.469Z,48.52
2017-04-08T02:59:02.817Z,48.18
2017-04-08T03:00:01.220Z,44.35
2017-04-08T03:00:59.632Z,46.28
2017-04-08T03:01:58.088Z,49.00
2017-04-08T03:02:57.172Z,48.57
2017-04-08T03:03:56.341Z,45.27
2017-04-08T03:04:54.837Z,43.48
2017-04-08T03:05:53.205Z,48.75
2017-04-08T03:06:52.274Z,48.47
2017-04-08T03:07:51.376Z,43.98
2017-04-08T03:08:50.524Z,43.45
2017-04-08T03:09:48.884Z,43.93
2017-04-08T03:10:47.497Z,41.95
2017-04-08T03:11:46.625Z,45.57
2017-04-08T03:12:45.818Z,46.58
2017-04-08T03:13:44.248Z,42.75
2017-04-08T03:14:42.653Z,44.32
2017-04-08T03:15:41.836Z,49.77
2017-04-08T03:16:40.928Z,44.32
2017-04-08T03:17:39.436Z,45.57
2017-04-08T03:18:37.805Z,43.10
2017-04-08T03:19:36.180Z,45.12
2017-04-08T03:20:34.508Z,42.03
2017-04-08T03:21:32.848Z,43.68
2017-04-08T03:22:32.013Z,43.62
2017-04-08T03:23:30.373Z,44.48
2017-04-08T03:24:28.724Z,47.72
2017-04-08T03:25:27.139Z,43.72
2017-04-08T03:26:25.528Z,48.45
2017-04-08T03:27:23.964Z,46.40
2017-04-08T03:28:22.283Z,45.93
2017-04-08T03:29:20.825Z,46.40
2017-04-08T03:30:19.868Z,45.30
2017-04-08T03:31:18.202Z,45.45
2017-04-08T03:32:16.533Z,46.60
2017-04-08T03:33:14.887Z,44.92
2017-04-08T03:34:13.294Z,48.88
2017-04-08T03:35:11.726Z,47.13
2017-04-08T03:36:10.065Z,47.25
2017-04-08T03:37:08.393Z,46.73
2017-04-08T03:38:06.724Z,48.85
2017-04-08T03:39:05.173Z,50.93
2017-04-08T03:40:03.699Z,45.02
2017-04-08T03:41:02.064Z,46.12
2017-04-08T03:42:00.496Z,47.87
2017-04-08T03:42:58.824Z,51.83
2017-04-08T03:43:57.178Z,47.28
2017-04-08T03:44:55.535Z,47.57
2017-04-08T03:45:54.604Z,45.65
2017-04-08T03:46:53.001Z,48.18
2017-04-08T03:47:51.313Z,48.30
2017-04-08T03:48:49.592Z,43.93
2017-04-08T03:49:47.984Z,47.17
2017-04-08T03:50:46.332Z,44.60
2017-04-08T03:51:44.690Z,44.30
2017-04-08T03:52:43.062Z,45.60
2017-04-08T03:53:41.499Z,45.13
2017-04-08T03:54:39.873Z,44.67
2017-04-08T03:55:38.229Z,46.40
2017-04-08T03:56:36.564Z,45.50
2017-04-08T03:57:34.914Z,45.45
2017-04-08T03:58:33.269Z,44.57
2017-04-08T03:59:31.596Z,44.58
2017-04-08T04:00:30.732Z,45.72
2017-04-08T04:01:29.069Z,44.40
2017-04-08T04:02:27.377Z,48.05
2017-04-08T04:03:25.768Z,51.18
2017-04-08T04:04:24.869Z,47.70
2017-04-08T04:05:23.920Z,44.60
2017-04-08T04:06:22.215Z,48.60
2017-04-08T04:07:21.303Z,46.23
2017-04-08T04:08:19.623Z,48.47
2017-04-08T04:09:18.067Z,45.75
2017-04-08T04:10:16.457Z,47.35
2017-04-08T04:11:14.775Z,50.80
2017-04-08T04:12:13.167Z,44.00
2017-04-08T04:13:11.500Z,44.28
2017-04-08T04:14:09.788Z,47.48
2017-04-08T04:15:08.135Z,45.30
2017-04-08T04:16:07.261Z,43.95
2017-04-08T04:17:05.616Z,46.48
2017-04-08T04:18:04.015Z,43.85
2017-04-08T04:19:02.460Z,46.98
2017-04-08T04:20:00.789Z,50.23
2017-04-08T04:20:59.924Z,47.83
2017-04-08T04:21:58.296Z,45.67
2017-04-08T04:22:56.632Z,51.50
2017-04-08T04:23:54.925Z,49.07
2017-04-08T04:24:53.257Z,48.00
2017-04-08T04:25:52.366Z,47.52
2017-04-08T04:26:50.725Z,46.20
2017-04-08T04:27:49.064Z,46.82
2017-04-08T04:28:48.165Z,48.58
2017-04-08T04:29:47.213Z,51.85
2017-04-08T04:30:45.593Z,46.82
2017-04-08T04:31:43.962Z,46.25
2017-04-08T04:32:42.300Z,45.83
2017-04-08T04:33:40.695Z,50.32
2017-04-08T04:34:39.001Z,50.85
2017-04-08T04:35:38.064Z,51.15
2017-04-08T04:36:36.368Z,46.42
2017-04-08T04:37:35.463Z,47.77
2017-04-08T04:38:34.556Z,45.70
2017-04-08T04:39:32.901Z,45.32
2017-04-08T04:40:31.205Z,49.27
2017-04-08T04:41:29.561Z,46.33
2017-04-08T04:42:27.879Z,48.58
2017-04-08T04:43:26.192Z,47.55
2017-04-08T04:44:24.496Z,46.45
2017-04-08T04:45:22.836Z,45.83
2017-04-08T04:46:21.189Z,45.38
2017-04-08T04:47:19.468Z,49.82
2017-04-08T04:48:17.788Z,51.62
2017-04-08T04:49:16.125Z,45.62
2017-04-08T04:50:14.452Z,51.20
2017-04-08T04:51:12.845Z,52.48
2017-04-08T04:52:11.832Z,44.57
2017-04-08T04:53:10.138Z,46.72
2017-04-08T04:54:08.441Z,45.12
2017-04-08T04:55:06.747Z,47.42
2017-04-08T04:56:05.088Z,50.78
2017-04-08T04:57:03.469Z,53.07
2017-04-08T04:58:01.757Z,46.73
2017-04-08T04:59:00.121Z,50.78
2017-04-08T04:59:58.448Z,47.75
2017-04-08T05:00:57.449Z,49.68
2017-04-08T05:01:55.748Z,48.50
2017-04-08T05:02:54.085Z,46.38
2017-04-08T05:03:52.349Z,51.75
2017-04-08T05:04:58.124Z,54.65
2017-04-08T05:05:56.410Z,47.73
2017-04-08T05:06:54.773Z,51.43
2017-04-08T05:07:53.889Z,50.05
2017-04-08T05:08:52.231Z,48.75
2017-04-08T05:09:50.548Z,48.42
2017-04-08T05:10:48.780Z,49.03
2017-04-08T05:11:47.809Z,46.72
2017-04-08T05:12:46.117Z,47.02
2017-04-08T05:13:44.560Z,45.35
2017-04-08T05:14:42.855Z,45.75
2017-04-08T05:15:41.144Z,51.65
2017-04-08T05:16:39.465Z,46.27
2017-04-08T05:17:37.944Z,48.70
2017-04-08T05:18:36.265Z,52.80
2017-04-08T05:19:34.647Z,46.58
2017-04-08T05:20:33.068Z,47.60
2017-04-08T05:21:32.112Z,48.92
2017-04-08T05:22:30.541Z,46.33
2017-04-08T05:23:28.853Z,49.27
2017-04-08T05:24:27.333Z,52.08
2017-04-08T05:25:25.729Z,48.72
2017-04-08T05:26:24.064Z,49.15
2017-04-08T05:27:22.380Z,45.05
2017-04-08T05:28:21.404Z,55.45
2017-04-08T05:29:19.692Z,50.17
2017-04-08T05:30:18.009Z,50.58
2017-04-08T05:31:16.448Z,50.58
2017-04-08T05:32:14.809Z,45.72
2017-04-08T05:33:13.160Z,49.72
2017-04-08T05:34:11.644Z,49.75
2017-04-08T05:35:09.985Z,52.20
2017-04-08T05:36:08.296Z,50.23
2017-04-08T05:37:06.624Z,56.32
2017-04-08T05:38:05.008Z,49.23
2017-04-08T05:39:04.576Z,51.05
2017-04-08T05:40:02.957Z,49.25
2017-04-08T05:41:01.305Z,52.90
2017-04-08T05:41:59.664Z,52.68
2017-04-08T05:42:58.001Z,50.10
2017-04-08T05:43:57.070Z,51.08
2017-04-08T05:44:55.386Z,52.10
2017-04-08T05:45:53.772Z,54.27
2017-04-08T05:46:52.134Z,53.00
2017-04-08T05:47:50.529Z,46.03
2017-04-08T05:48:48.950Z,51.85
2017-04-08T05:49:47.295Z,51.92
2017-04-08T05:50:46.453Z,50.52
2017-04-08T05:51:44.788Z,47.60
2017-04-08T05:52:43.179Z,54.22
2017-04-08T05:53:41.576Z,49.68
2017-04-08T05:54:40.035Z,51.23
2017-04-08T05:55:38.369Z,58.25
2017-04-08T05:56:36.771Z,46.93
2017-04-08T05:57:35.135Z,50.28
2017-04-08T05:58:33.457Z,47.00
2017-04-08T05:59:32.537Z,51.95
2017-04-08T06:00:31.636Z,54.78
2017-04-08T06:01:29.926Z,52.08
2017-04-08T06:02:28.261Z,52.48
2017-04-08T06:03:27.298Z,48.00
2017-04-08T06:04:25.668Z,51.02
2017-04-08T06:05:24.034Z,53.58
2017-04-08T06:06:22.409Z,48.23
2017-04-08T06:07:20.716Z,51.75
2017-04-08T06:08:19.004Z,59.82
2017-04-08T06:09:17.332Z,51.80
2017-04-08T06:10:16.428Z,51.58
2017-04-08T06:11:14.732Z,51.73
2017-04-08T06:12:13.081Z,56.28
2017-04-08T06:13:11.393Z,53.18
2017-04-08T06:14:09.785Z,56.88
2017-04-08T06:15:08.063Z,53.23
2017-04-08T06:16:07.128Z,52.30
2017-04-08T06:17:06.225Z,49.87
2017-04-08T06:18:04.506Z,54.00
2017-04-08T06:19:02.821Z,56.08
2017-04-08T06:20:01.137Z,53.12
2017-04-08T06:20:59.389Z,60.68
2017-04-08T06:21:57.660Z,53.08
2017-04-08T06:22:56.708Z,54.32
2017-04-08T06:23:55.308Z,58.95
2017-04-08T06:24:53.594Z,52.60
2017-04-08T06:25:51.892Z,56.82
2017-04-08T06:26:50.156Z,62.02
2017-04-08T06:27:48.453Z,55.23
2017-04-08T06:28:46.728Z,53.63
2017-04-08T06:29:45.001Z,61.25
2017-04-08T06:30:43.342Z,51.37
2017-04-08T06:31:41.614Z,58.38
2017-04-08T06:32:39.896Z,60.00
2017-04-08T06:33:38.232Z,59.87
2017-04-08T06:34:36.512Z,51.10
2017-04-08T06:35:34.816Z,56.27
2017-04-08T06:36:33.153Z,57.52
2017-04-08T06:37:31.552Z,59.82
2017-04-08T06:38:29.884Z,52.92
2017-04-08T06:39:28.156Z,57.77
2017-04-08T06:40:26.492Z,54.80
2017-04-08T06:41:24.788Z,62.50
2017-04-08T06:42:23.117Z,62.88
2017-04-08T06:43:21.389Z,57.92
2017-04-08T06:44:19.690Z,61.68
2017-04-08T06:45:17.984Z,58.47
2017-04-08T06:46:16.289Z,54.32
2017-04-08T06:47:14.624Z,54.27
2017-04-08T06:48:12.932Z,58.12
2017-04-08T06:49:11.236Z,57.45
2017-04-08T06:50:09.594Z,54.23
2017-04-08T06:51:07.943Z,58.22
2017-04-08T06:52:06.304Z,54.75
2017-04-08T06:53:04.613Z,52.30
2017-04-08T06:54:03.033Z,56.17
2017-04-08T06:55:01.382Z,57.87
2017-04-08T06:55:59.757Z,56.67
2017-04-08T06:56:58.860Z,56.97
2017-04-08T06:57:57.165Z,58.47
2017-04-08T06:58:55.519Z,52.05
2017-04-08T06:59:53.806Z,61.65
2017-04-08T07:00:52.136Z,60.82
2017-04-08T07:01:50.484Z,54.33
2017-04-08T07:02:50.228Z,64.67
2017-04-08T07:03:48.965Z,55.17
2017-04-08T07:04:47.324Z,57.05
2017-04-08T07:05:46.352Z,55.52
2017-04-08T07:06:44.684Z,51.38
2017-04-08T07:07:43.033Z,54.62
2017-04-08T07:08:41.393Z,51.07
2017-04-08T07:09:39.727Z,61.10
2017-04-08T07:10:38.116Z,54.52
2017-04-08T07:11:36.449Z,54.58
2017-04-08T07:12:34.844Z,52.18
2017-04-08T07:13:33.188Z,59.00
2017-04-08T07:14:31.488Z,54.02
2017-04-08T07:15:29.836Z,57.03
2017-04-08T07:16:28.197Z,57.60
2017-04-08T07:17:26.543Z,58.95
2017-04-08T07:18:25.008Z,51.50
2017-04-08T07:19:23.288Z,56.30
2017-04-08T07:20:21.632Z,55.47
2017-04-08T07:21:20.733Z,57.83
2017-04-08T07:22:20.526Z,56.38
2017-04-08T07:23:19.633Z,55.13
2017-04-08T07:24:17.929Z,62.73
2017-04-08T07:25:16.199Z,63.90
2017-04-08T07:26:14.565Z,56.35
2017-04-08T07:27:12.881Z,53.08
2017-04-08T07:28:11.226Z,53.87
2017-04-08T07:29:09.553Z,51.90
2017-04-08T07:30:07.913Z,54.23
2017-04-08T07:31:06.317Z,52.97
2017-04-08T07:32:04.645Z,57.03
2017-04-08T07:33:02.968Z,54.97
2017-04-08T07:34:01.308Z,57.45
2017-04-08T07:34:59.752Z,57.28
2017-04-08T07:35:58.156Z,54.67
2017-04-08T07:36:56.499Z,54.83
2017-04-08T07:37:54.812Z,61.58
2017-04-08T07:38:53.868Z,58.42
2017-04-08T07:39:52.208Z,58.58
2017-04-08T07:40:50.638Z,63.72
2017-04-08T07:41:49.010Z,52.15
2017-04-08T07:42:48.116Z,61.60
2017-04-08T07:43:47.198Z,52.33
2017-04-08T07:44:46.282Z,53.80
2017-04-08T07:45:45.393Z,56.77
2017-04-08T07:46:43.800Z,61.27
2017-04-08T07:47:42.141Z,56.13
2017-04-08T07:48:40.478Z,51.63
2017-04-08T07:49:39.551Z,64.82
2017-04-08T07:50:38.592Z,60.17
2017-04-08T07:51:37.017Z,62.43
2017-04-08T07:52:35.409Z,60.37
2017-04-08T07:53:33.749Z,58.78
2017-04-08T07:54:32.800Z,63.20
2017-04-08T07:55:31.189Z,61.52
2017-04-08T07:56:29.562Z,59.87
2017-04-08T07:57:28.632Z,55.98
2017-04-08T07:58:26.981Z,55.82
2017-04-08T07:59:25.400Z,53.98
2017-04-08T08:00:23.836Z,52.02
2017-04-08T08:01:22.932Z,53.15
2017-04-08T08:02:21.289Z,57.57
2017-04-08T08:03:19.609Z,61.90
2017-04-08T08:04:18.024Z,58.82
2017-04-08T08:05:16.377Z,56.12
2017-04-08T08:06:14.782Z,53.05
2017-04-08T08:07:13.912Z,57.02
2017-04-08T08:08:12.239Z,60.60
2017-04-08T08:09:11.011Z,58.62
2017-04-08T08:10:09.512Z,54.95
2017-04-08T08:11:07.906Z,56.55
2017-04-08T08:12:06.447Z,55.18
2017-04-08T08:13:04.992Z,61.47
2017-04-08T08:14:03.353Z,54.67
2017-04-08T08:15:01.656Z,52.33
2017-04-08T08:15:59.936Z,53.65
2017-04-08T08:16:58.240Z,55.13
2017-04-08T08:17:56.560Z,51.57
2017-04-08T08:18:54.884Z,59.12
2017-04-08T08:19:53.929Z,55.48
2017-04-08T08:20:52.258Z,57.37
2017-04-08T08:21:51.281Z,59.57
2017-04-08T08:22:49.595Z,60.63
2017-04-08T08:23:48.661Z,59.03
2017-04-08T08:24:46.966Z,60.18
2017-04-08T08:25:46.177Z,59.02
2017-04-08T08:26:44.502Z,57.67
2017-04-08T08:27:42.984Z,55.83
2017-04-08T08:28:42.078Z,58.25
2017-04-08T08:29:41.273Z,57.95
2017-04-08T08:30:39.985Z,57.80
2017-04-08T08:31:38.458Z,59.20
2017-04-08T08:32:37.106Z,60.63
2017-04-08T08:33:35.504Z,61.45
2017-04-08T08:34:34.057Z,60.72
2017-04-08T08:35:32.463Z,57.07
2017-04-08T08:36:31.032Z,56.35
2017-04-08T08:37:29.445Z,60.72
2017-04-08T08:38:27.975Z,60.78
2017-04-08T08:39:27.272Z,56.13
2017-04-08T08:40:25.841Z,55.53
2017-04-08T08:41:24.128Z,59.37
2017-04-08T08:42:22.421Z,60.62
2017-04-08T08:43:20.894Z,61.62
2017-04-08T08:44:19.213Z,59.88
2017-04-08T08:45:18.477Z,56.17
2017-04-08T08:46:17.074Z,52.73
2017-04-08T08:47:15.589Z,57.68
2017-04-08T08:48:13.865Z,55.30
2017-04-08T08:49:12.173Z,61.17
2017-04-08T08:50:10.494Z,61.03
2017-04-08T08:51:08.813Z,64.28
2017-04-08T08:52:07.089Z,64.43
2017-04-08T08:53:05.389Z,60.62
2017-04-08T08:54:04.414Z,58.73
2017-04-08T08:55:02.728Z,56.12
2017-04-08T08:56:01.812Z,57.17
2017-04-08T08:57:00.159Z,59.60
2017-04-08T08:57:58.476Z,60.53
2017-04-08T08:58:57.490Z,55.05
2017-04-08T08:59:55.745Z,59.47
2017-04-08T09:00:54.082Z,52.50
2017-04-08T09:01:52.391Z,59.87
2017-04-08T09:02:50.658Z,59.93
2017-04-08T09:03:48.965Z,62.07
2017-04-08T09:04:47.794Z,55.80
2017-04-08T09:05:46.061Z,55.83
2017-04-08T09:06:44.350Z,62.62
2017-04-08T09:07:42.610Z,65.17
2017-04-08T09:08:40.882Z,61.73
2017-04-08T09:09:39.165Z,61.58
2017-04-08T09:10:37.501Z,58.45
2017-04-08T09:11:35.909Z,61.70
2017-04-08T09:12:35.053Z,61.47
2017-04-08T09:13:33.386Z,56.82
2017-04-08T09:14:31.866Z,57.05
2017-04-08T09:15:30.213Z,58.33
2017-04-08T09:16:29.280Z,62.28
2017-04-08T09:17:27.648Z,55.22
2017-04-08T09:18:26.764Z,61.80
2017-04-08T09:19:25.128Z,58.00
2017-04-08T09:20:23.509Z,57.13
2017-04-08T09:21:22.558Z,55.15
2017-04-08T09:22:20.872Z,55.32
2017-04-08T09:23:19.193Z,61.98
2017-04-08T09:24:18.296Z,59.47
2017-04-08T09:25:16.629Z,53.80
2017-04-08T09:26:15.038Z,61.33
2017-04-08T09:27:13.389Z,59.80
2017-04-08T09:28:12.480Z,64.50
2017-04-08T09:29:11.548Z,58.05
2017-04-08T09:30:10.045Z,62.17
2017-04-08T09:31:08.428Z,53.98
2017-04-08T09:32:07.485Z,60.95
2017-04-08T09:33:05.832Z,57.65
2017-04-08T09:34:04.171Z,57.97
2017-04-08T09:35:02.707Z,58.57
2017-04-08T09:36:01.079Z,66.80
2017-04-08T09:37:00.178Z,56.12
2017-04-08T09:37:58.520Z,59.27
2017-04-08T09:38:56.840Z,59.73
2017-04-08T09:39:55.129Z,58.13
2017-04-08T09:40:53.444Z,69.50
2017-04-08T09:41:52.492Z,60.32
2017-04-08T09:42:50.788Z,59.12
2017-04-08T09:43:49.837Z,56.90
2017-04-08T09:44:48.164Z,62.68
2017-04-08T09:45:46.451Z,61.93
2017-04-08T09:46:44.753Z,58.25
2017-04-08T09:47:43.106Z,62.72
2017-04-08T09:48:41.461Z,59.50
2017-04-08T09:49:40.850Z,55.72
2017-04-08T09:50:39.114Z,53.25
2017-04-08T09:51:38.156Z,55.03
2017-04-08T09:52:37.199Z,49.72
2017-04-08T09:53:35.564Z,53.93
2017-04-08T09:54:33.876Z,52.62
2017-04-08T09:55:32.212Z,55.25
2017-04-08T09:56:30.513Z,54.55
2017-04-08T09:57:29.645Z,51.90
2017-04-08T09:58:27.945Z,52.87
2017-04-08T09:59:26.226Z,58.03
2017-04-08T10:00:25.328Z,56.62
2017-04-08T10:01:23.656Z,56.62
2017-04-08T10:02:21.928Z,58.93
2017-04-08T10:03:21.092Z,57.93
2017-04-08T10:04:19.424Z,57.22
2017-04-08T10:05:17.874Z,54.65
2017-04-08T10:06:16.253Z,55.87
2017-04-08T10:07:14.658Z,51.02
2017-04-08T10:08:12.988Z,55.72
2017-04-08T10:09:11.358Z,57.15
2017-04-08T10:10:09.693Z,59.07
2017-04-08T10:11:08.010Z,55.28
2017-04-08T10:12:06.324Z,51.83
2017-04-08T10:13:04.721Z,51.32
2017-04-08T10:14:03.789Z,53.95
2017-04-08T10:15:02.112Z,50.37
2017-04-08T10:16:00.438Z,51.93
2017-04-08T10:16:59.487Z,47.75
2017-04-08T10:17:57.803Z,48.88
2017-04-08T10:18:56.120Z,52.27
2017-04-08T10:19:54.411Z,55.30
2017-04-08T10:20:52.693Z,50.97
2017-04-08T10:21:51.008Z,50.20
2017-04-08T10:22:49.333Z,54.68
2017-04-08T10:23:47.573Z,49.82
2017-04-08T10:24:45.821Z,47.92
2017-04-08T10:25:44.072Z,52.40
2017-04-08T10:26:42.324Z,55.58
2017-04-08T10:27:40.541Z,48.63
2017-04-08T10:28:38.786Z,47.17
2017-04-08T10:29:37.013Z,47.28
2017-04-08T10:30:37.376Z,43.63
2017-04-08T10:31:36.141Z,44.40
2017-04-08T10:32:35.173Z,43.50
2017-04-08T10:33:34.136Z,41.92
2017-04-08T10:34:32.396Z,44.33
2017-04-08T10:35:31.400Z,49.03
2017-04-08T10:36:29.612Z,44.78
2017-04-08T10:37:27.950Z,41.78
2017-04-08T10:38:26.212Z,40.32
2017-04-08T10:39:24.814Z,39.88
2017-04-08T10:40:23.066Z,39.17
2017-04-08T10:41:21.285Z,42.28
2017-04-08T10:42:20.283Z,40.33
2017-04-08T10:43:19.289Z,44.43
2017-04-08T10:44:17.504Z,43.62
2017-04-08T10:45:15.736Z,43.18
2017-04-08T10:46:13.992Z,42.82
2017-04-08T10:47:12.934Z,42.80
2017-04-08T10:48:12.000Z,41.78
2017-04-08T10:49:10.269Z,41.20
2017-04-08T10:50:08.576Z,41.67
2017-04-08T10:51:06.856Z,43.05
2017-04-08T10:52:05.193Z,42.28
2017-04-08T10:53:03.620Z,43.08
2017-04-08T10:54:01.916Z,43.17
2017-04-08T10:55:00.220Z,47.30
2017-04-08T10:55:58.500Z,45.27
2017-04-08T10:56:57.540Z,46.87
2017-04-08T10:57:55.844Z,45.65
2017-04-08T10:58:54.916Z,42.12
2017-04-08T10:59:53.245Z,42.35
2017-04-08T11:00:51.520Z,40.47
2017-04-08T11:01:49.881Z,41.63
2017-04-08T11:02:48.164Z,42.58
2017-04-08T11:03:46.476Z,44.65
2017-04-08T11:04:44.744Z,40.22
2017-04-08T11:05:43.085Z,43.83
2017-04-08T11:06:42.097Z,44.60
2017-04-08T11:07:40.407Z,44.22
2017-04-08T11:08:39.499Z,40.25
2017-04-08T11:09:37.860Z,41.23
2017-04-08T11:10:36.232Z,39.98
2017-04-08T11:11:34.532Z,47.03
2017-04-08T11:12:32.108Z,39.87
2017-04-08T11:13:30.561Z,40.50
2017-04-08T11:14:28.870Z,41.83
2017-04-08T11:15:27.183Z,42.30
2017-04-08T11:16:25.517Z,41.53
2017-04-08T11:17:23.921Z,40.25
2017-04-08T11:18:23.010Z,37.60
2017-04-08T11:19:21.332Z,39.08
2017-04-08T11:20:19.692Z,39.93
2017-04-08T11:21:18.317Z,44.52
2017-04-08T11:22:16.788Z,40.43
2017-04-08T11:23:15.180Z,39.68
2017-04-08T11:24:13.509Z,40.90
2017-04-08T11:25:12.012Z,40.73
2017-04-08T11:26:10.442Z,40.58
2017-04-08T11:27:09.548Z,42.27
2017-04-08T11:28:08.021Z,40.75
2017-04-08T11:29:06.471Z,42.17
2017-04-08T11:30:05.545Z,39.78
2017-04-08T11:31:03.861Z,40.27
2017-04-08T11:32:02.151Z,40.48
2017-04-08T11:33:01.153Z,42.12
2017-04-08T11:33:59.425Z,40.72
2017-04-08T11:34:57.734Z,40.08
2017-04-08T11:35:56.940Z,41.75
2017-04-08T11:36:55.210Z,40.23
2017-04-08T11:37:53.558Z,41.10
2017-04-08T11:38:52.219Z,38.25
2017-04-08T11:39:50.556Z,39.20
2017-04-08T11:40:48.867Z,41.40
2017-04-08T11:41:47.908Z,42.02
2017-04-08T11:42:46.184Z,37.13
2017-04-08T11:43:44.491Z,39.23
2017-04-08T11:44:42.814Z,41.73
2017-04-08T11:45:41.088Z,40.22
2017-04-08T11:46:39.404Z,39.28
2017-04-08T11:47:37.661Z,39.68
2017-04-08T11:48:36.072Z,38.57
2017-04-08T11:49:34.526Z,35.73
2017-04-08T11:50:32.891Z,38.00
2017-04-08T11:51:31.289Z,39.47
2017-04-08T11:52:30.457Z,39.55
2017-04-08T11:53:29.098Z,38.92
2017-04-08T11:54:27.817Z,39.83
2017-04-08T11:55:26.165Z,35.57
2017-04-08T11:56:24.472Z,38.72
2017-04-08T11:57:22.794Z,37.20
2017-04-08T11:58:21.125Z,38.15
2017-04-08T11:59:20.160Z,41.03
2017-04-08T12:00:18.453Z,39.30
2017-04-08T12:01:18.378Z,36.12
2017-04-08T12:02:17.517Z,42.22
2017-04-08T12:03:15.806Z,38.05
2017-04-08T12:04:14.145Z,37.63
2017-04-08T12:05:14.796Z,41.97
2017-04-08T12:06:14.540Z,44.07
2017-04-08T12:07:12.904Z,39.05
2017-04-08T12:08:11.341Z,35.87
2017-04-08T12:09:09.629Z,36.92
2017-04-08T12:10:07.948Z,39.45
2017-04-08T12:11:06.316Z,38.23
2017-04-08T12:12:04.621Z,39.18
2017-04-08T12:13:03.013Z,37.83
2017-04-08T12:14:02.155Z,33.30
2017-04-08T12:15:13.217Z,37.83
2017-04-08T12:16:11.730Z,35.92
2017-04-08T12:17:10.788Z,34.67
2017-04-08T12:18:09.056Z,37.93
2017-04-08T12:19:07.329Z,39.15
2017-04-08T12:20:05.658Z,36.25
2017-04-08T12:21:04.032Z,38.60
2017-04-08T12:22:02.352Z,38.00
2017-04-08T12:23:00.728Z,35.35
2017-04-08T12:23:59.759Z,36.75
2017-04-08T12:24:58.044Z,36.60
2017-04-08T12:25:56.843Z,36.17
2017-04-08T12:26:55.712Z,35.57
2017-04-08T12:27:54.155Z,37.03
2017-04-08T12:28:52.551Z,39.00
2017-04-08T12:29:50.893Z,37.42
2017-04-08T12:30:49.949Z,37.15
2017-04-08T12:31:48.289Z,37.50
2017-04-08T12:32:47.399Z,35.75
2017-04-08T12:33:45.728Z,38.88